createdAt,value
2023-07-29T00:01:43.297Z,100580.09
2023-07-29T00:04:10.683Z,100575.53
2023-07-29T00:06:38.002Z,100572.56
2023-07-29T00:09:05.341Z,100563.97
2023-07-29T00:11:34.748Z,100565.31
2023-07-29T00:14:03.237Z,100567.44
2023-07-29T00:16:30.294Z,100558.03
2023-07-29T00:18:57.327Z,100553.47
2023-07-29T00:21:24.447Z,100554.81
2023-07-29T00:23:51.449Z,100559.13
2023-07-29T00:26:18.577Z,100562.34
2023-07-29T00:28:45.552Z,100555.88
2023-07-29T00:31:13.859Z,100561.81
2023-07-29T00:33:40.880Z,100562.88
2023-07-29T00:36:07.817Z,100554.28
2023-07-29T00:38:34.786Z,100559.09
2023-07-29T00:41:04.152Z,100549.44
2023-07-29T00:43:31.210Z,100551.56
2023-07-29T00:46:00.732Z,100551.56
2023-07-29T00:48:29.193Z,100559.09
2023-07-29T00:50:56.585Z,100555.59
2023-07-29T00:53:23.602Z,100567.47
2023-07-29T00:55:50.841Z,100562.63
2023-07-29T00:58:17.985Z,100565.31
2023-07-29T01:00:44.986Z,100560.19
2023-07-29T01:03:12.262Z,100553.75
2023-07-29T01:05:57.399Z,100552.13
2023-07-29T01:08:44.013Z,100562.09
2023-07-29T01:11:31.678Z,100554.25
2023-07-29T01:14:07.105Z,100556.91
2023-07-29T01:16:44.025Z,100557.44
2023-07-29T01:19:30.972Z,100555.81
2023-07-29T01:22:00.803Z,100568.69
2023-07-29T01:24:29.270Z,100552.00
2023-07-29T01:26:56.337Z,100549.84
2023-07-29T01:29:23.394Z,100556.84
2023-07-29T01:31:57.244Z,100555.50
2023-07-29T01:34:30.798Z,100554.69
2023-07-29T01:37:03.372Z,100552.25
2023-07-29T01:39:37.329Z,100540.13
2023-07-29T01:42:04.995Z,100546.06
2023-07-29T01:44:32.973Z,100540.94
2023-07-29T01:47:01.100Z,100537.47
2023-07-29T01:49:28.236Z,100529.09
2023-07-29T01:51:55.237Z,100534.22
2023-07-29T01:54:22.391Z,100521.84
2023-07-29T01:56:52.125Z,100526.16
2023-07-29T01:59:19.112Z,100535.00
2023-07-29T02:01:47.468Z,100531.22
2023-07-29T02:08:20.379Z,100532.47
2023-07-29T02:10:47.357Z,100537.34
2023-07-29T02:13:15.869Z,100535.81
2023-07-29T02:15:42.861Z,100525.06
2023-07-29T02:18:09.832Z,100526.94
2023-07-29T02:20:36.826Z,100528.84
2023-07-29T02:23:03.952Z,100522.34
2023-07-29T02:25:30.925Z,100526.63
2023-07-29T02:27:57.916Z,100517.72
2023-07-29T02:30:26.260Z,100521.72
2023-07-29T02:32:53.343Z,100520.59
2023-07-29T02:35:20.406Z,100518.47
2023-07-29T02:37:47.338Z,100526.50
2023-07-29T02:40:14.463Z,100521.63
2023-07-29T02:42:41.397Z,100507.13
2023-07-29T02:45:11.232Z,100517.84
2023-07-29T02:47:39.805Z,100524.78
2023-07-29T02:50:07.894Z,100510.28
2023-07-29T02:52:34.915Z,100510.78
2023-07-29T02:55:01.901Z,100510.78
2023-07-29T02:57:28.916Z,100514.56
2023-07-29T02:59:55.853Z,100515.59
2023-07-29T03:02:23.428Z,100512.09
2023-07-29T03:04:51.895Z,100519.88
2023-07-29T03:07:18.973Z,100513.44
2023-07-29T03:09:46.188Z,100516.63
2023-07-29T03:12:13.202Z,100520.06
2023-07-29T03:14:42.325Z,100521.38
2023-07-29T03:17:09.315Z,100519.19
2023-07-29T03:19:36.430Z,100525.06
2023-07-29T03:22:05.036Z,100520.28
2023-07-29T03:24:32.020Z,100531.03
2023-07-29T03:26:59.026Z,100528.88
2023-07-29T03:29:26.088Z,100537.47
2023-07-29T03:31:53.029Z,100530.47
2023-07-29T03:34:20.038Z,100530.47
2023-07-29T03:36:48.707Z,100525.94
2023-07-29T03:39:16.999Z,100517.13
2023-07-29T03:41:44.068Z,100515.00
2023-07-29T03:44:11.047Z,100517.16
2023-07-29T03:46:38.583Z,100509.69
2023-07-29T03:49:05.918Z,100500.63
2023-07-29T03:51:32.862Z,100500.06
2023-07-29T03:53:59.791Z,100492.31
2023-07-29T03:56:28.080Z,100493.16
2023-07-29T03:59:03.246Z,100496.94
2023-07-29T04:01:30.242Z,100498.03
2023-07-29T04:03:57.382Z,100505.03
2023-07-29T04:06:24.562Z,100524.66
2023-07-29T04:08:51.760Z,100511.53
2023-07-29T04:11:18.793Z,100500.22
2023-07-29T04:13:47.081Z,100508.28
2023-07-29T04:16:14.383Z,100501.31
2023-07-29T04:18:41.389Z,100495.66
2023-07-29T04:21:08.345Z,100495.66
2023-07-29T04:23:36.220Z,100499.19
2023-07-29T04:26:03.184Z,100500.03
2023-07-29T04:28:30.405Z,100507.53
2023-07-29T04:30:58.861Z,100500.81
2023-07-29T04:33:25.844Z,100509.41
2023-07-29T04:35:52.813Z,100509.94
2023-07-29T04:38:19.756Z,100505.38
2023-07-29T04:40:46.690Z,100496.78
2023-07-29T04:43:13.627Z,100497.56
2023-07-29T04:45:44.382Z,100504.56
2023-07-29T04:48:12.761Z,100499.19
2023-07-29T04:50:39.757Z,100493.31
2023-07-29T04:53:06.785Z,100492.47
2023-07-29T04:55:34.141Z,100481.22
2023-07-29T04:58:01.242Z,100483.63
2023-07-29T05:00:28.203Z,100486.84
2023-07-29T05:02:55.241Z,100487.38
2023-07-29T05:05:23.603Z,100480.41
2023-07-29T05:07:50.553Z,100480.41
2023-07-29T05:10:17.846Z,100469.13
2023-07-29T05:12:44.873Z,100464.81
2023-07-29T05:15:11.963Z,100467.22
2023-07-29T05:17:39.310Z,100468.03
2023-07-29T05:20:08.546Z,100460.81
2023-07-29T05:22:36.864Z,100461.66
2023-07-29T05:25:04.940Z,100453.34
2023-07-29T05:27:31.862Z,100461.41
2023-07-29T05:29:58.824Z,100462.22
2023-07-29T05:32:25.871Z,100465.72
2023-07-29T05:34:52.877Z,100462.22
2023-07-29T05:37:19.828Z,100462.25
2023-07-29T05:39:48.327Z,100469.50
2023-07-29T05:42:15.392Z,100466.00
2023-07-29T05:44:42.351Z,100458.75
2023-07-29T05:47:09.841Z,100474.38
2023-07-29T05:49:36.813Z,100472.47
2023-07-29T05:52:04.083Z,100470.31
2023-07-29T05:54:31.037Z,100467.63
2023-07-29T05:56:59.585Z,100471.13
2023-07-29T05:59:26.635Z,100468.16
2023-07-29T06:01:53.584Z,100468.97
2023-07-29T06:04:20.537Z,100478.91
2023-07-29T06:06:47.567Z,100481.06
2023-07-29T06:09:14.524Z,100475.16
2023-07-29T06:11:41.479Z,100468.16
2023-07-29T06:14:09.974Z,100471.91
2023-07-29T06:16:37.153Z,100482.13
2023-07-29T06:19:04.266Z,100484.84
2023-07-29T06:21:31.430Z,100483.78
2023-07-29T06:23:58.393Z,100478.94
2023-07-29T06:26:25.348Z,100483.25
2023-07-29T06:28:52.308Z,100484.84
2023-07-29T06:31:20.657Z,100492.94
2023-07-29T06:33:47.806Z,100488.88
2023-07-29T06:36:14.774Z,100500.19
2023-07-29T06:38:42.769Z,100507.16
2023-07-29T06:41:11.653Z,100509.59
2023-07-29T06:43:40.152Z,100505.28
2023-07-29T06:46:07.216Z,100504.22
2023-07-29T06:48:35.608Z,100495.63
2023-07-29T06:51:03.371Z,100487.81
2023-07-29T06:53:33.161Z,100488.06
2023-07-29T06:56:01.926Z,100483.22
2023-07-29T06:58:28.909Z,100485.91
2023-07-29T07:00:57.566Z,100488.06
2023-07-29T07:03:25.067Z,100487.47
2023-07-29T07:05:53.662Z,100487.47
2023-07-29T07:08:20.718Z,100495.84
2023-07-29T07:10:48.609Z,100491.25
2023-07-29T07:13:15.649Z,100500.13
2023-07-29T07:15:42.650Z,100496.09
2023-07-29T07:18:10.471Z,100492.88
2023-07-29T07:20:37.861Z,100495.56
2023-07-29T07:23:12.317Z,100498.00
2023-07-29T07:25:39.367Z,100493.91
2023-07-29T07:28:06.419Z,100495.03
2023-07-29T07:30:33.427Z,100497.72
2023-07-29T07:33:00.463Z,100497.66
2023-07-29T07:35:27.819Z,100498.44
2023-07-29T07:37:54.732Z,100501.09
2023-07-29T07:40:23.071Z,100501.84
2023-07-29T07:42:50.033Z,100508.88
2023-07-29T07:45:18.875Z,100508.06
2023-07-29T07:47:46.126Z,100513.16
2023-07-29T07:50:13.185Z,100506.47
2023-07-29T07:52:40.138Z,100514.78
2023-07-29T07:55:09.320Z,100509.69
2023-07-29T07:57:37.637Z,100528.75
2023-07-29T08:00:06.460Z,100522.56
2023-07-29T08:02:33.535Z,100527.72
2023-07-29T08:05:00.475Z,100515.84
2023-07-29T08:07:27.467Z,100511.25
2023-07-29T08:09:54.475Z,100503.88
2023-07-29T08:12:21.430Z,100489.72
2023-07-29T08:14:49.771Z,100492.63
2023-07-29T08:17:16.817Z,100492.78
2023-07-29T08:19:43.758Z,100498.16
2023-07-29T08:22:10.741Z,100493.03
2023-07-29T08:24:37.675Z,100500.13
2023-07-29T08:27:05.452Z,100491.13
2023-07-29T08:29:32.436Z,100494.41
2023-07-29T08:32:00.831Z,100501.19
2023-07-29T08:34:27.933Z,100502.41
2023-07-29T08:36:54.923Z,100499.50
2023-07-29T08:39:22.970Z,100498.56
2023-07-29T08:41:59.165Z,100507.38
2023-07-29T08:44:32.452Z,100509.31
2023-07-29T08:47:01.063Z,100516.50
2023-07-29T08:49:29.656Z,100515.09
2023-07-29T08:51:59.626Z,100507.94
2023-07-29T08:54:26.926Z,100509.25
2023-07-29T08:56:54.596Z,100509.63
2023-07-29T08:59:22.264Z,100498.59
2023-07-29T09:01:50.073Z,100497.47
2023-07-29T09:04:18.769Z,100497.63
2023-07-29T09:06:50.615Z,100494.78
2023-07-29T09:09:17.715Z,100497.91
2023-07-29T09:11:45.512Z,100495.31
2023-07-29T09:14:14.332Z,100496.84
2023-07-29T09:16:42.197Z,100494.72
2023-07-29T09:19:09.385Z,100490.69
2023-07-29T09:21:40.943Z,100494.59
2023-07-29T09:24:09.439Z,100500.47
2023-07-29T09:26:37.674Z,100489.06
2023-07-29T09:29:05.048Z,100489.63
2023-07-29T09:31:32.112Z,100494.63
2023-07-29T09:34:01.016Z,100489.16
2023-07-29T09:36:31.237Z,100492.47
2023-07-29T09:39:00.417Z,100481.56
2023-07-29T09:41:29.325Z,100486.69
2023-07-29T09:44:02.686Z,100478.91
2023-07-29T09:46:36.133Z,100483.59
2023-07-29T09:49:05.051Z,100481.78
2023-07-29T09:51:32.509Z,100491.41
2023-07-29T09:54:04.701Z,100501.69
2023-07-29T09:56:32.390Z,100484.97
2023-07-29T09:58:59.563Z,100469.16
2023-07-29T10:01:27.358Z,100474.63
2023-07-29T10:03:58.081Z,100478.34
2023-07-29T10:06:26.130Z,100475.09
2023-07-29T10:08:53.908Z,100473.88
2023-07-29T10:11:23.335Z,100475.13
2023-07-29T10:14:05.050Z,100467.66
2023-07-29T10:16:37.886Z,100461.03
2023-07-29T10:19:05.934Z,100461.66
2023-07-29T10:21:34.867Z,100465.34
2023-07-29T10:24:06.971Z,100456.16
2023-07-29T10:26:41.904Z,100458.06
2023-07-29T10:29:15.501Z,100458.22
2023-07-29T10:31:44.991Z,100460.31
2023-07-29T10:34:13.892Z,100457.09
2023-07-29T10:36:42.516Z,100469.41
2023-07-29T10:39:11.668Z,100463.69
2023-07-29T10:42:01.438Z,100461.28
2023-07-29T10:44:50.559Z,100469.38
2023-07-29T10:47:20.993Z,100462.66
2023-07-29T10:49:51.373Z,100469.88
2023-07-29T10:52:32.386Z,100472.00
2023-07-29T10:55:00.058Z,100471.34
2023-07-29T10:57:36.937Z,100467.97
2023-07-29T11:00:06.476Z,100471.28
2023-07-29T11:02:37.057Z,100465.59
2023-07-29T11:05:08.140Z,100464.53
2023-07-29T11:07:46.283Z,100453.28
2023-07-29T11:10:14.890Z,100457.38
2023-07-29T11:12:48.998Z,100465.47
2023-07-29T11:15:19.977Z,100460.47
2023-07-29T11:17:49.918Z,100462.72
2023-07-29T11:20:18.931Z,100467.59
2023-07-29T11:22:46.408Z,100460.25
2023-07-29T11:25:15.610Z,100467.13
2023-07-29T11:27:43.105Z,100468.59
2023-07-29T11:30:13.676Z,100468.00
2023-07-29T11:32:43.749Z,100474.28
2023-07-29T11:35:13.937Z,100480.09
2023-07-29T11:37:42.312Z,100477.50
2023-07-29T11:40:11.416Z,100476.50
2023-07-29T11:42:39.537Z,100473.41
2023-07-29T11:45:08.967Z,100477.09
2023-07-29T11:47:38.213Z,100467.25
2023-07-29T11:50:07.844Z,100477.69
2023-07-29T11:52:35.739Z,100482.13
2023-07-29T11:55:04.725Z,100488.75
2023-07-29T11:57:32.261Z,100489.16
2023-07-29T11:59:59.418Z,100492.69
2023-07-29T12:02:27.390Z,100490.38
2023-07-29T12:04:58.150Z,100491.94
2023-07-29T12:07:25.325Z,100494.78
2023-07-29T12:09:53.823Z,100487.75
2023-07-29T12:12:23.805Z,100491.19
2023-07-29T12:14:50.891Z,100493.97
2023-07-29T12:17:19.454Z,100487.34
2023-07-29T12:19:46.608Z,100485.72
2023-07-29T12:22:20.817Z,100494.47
2023-07-29T12:24:48.121Z,100484.13
2023-07-29T12:27:18.529Z,100485.72
2023-07-29T12:29:47.648Z,100481.00
2023-07-29T12:32:15.216Z,100487.91
2023-07-29T12:34:42.433Z,100477.50
2023-07-29T12:37:09.438Z,100477.88
2023-07-29T12:39:43.297Z,100478.25
2023-07-29T12:42:10.651Z,100472.78
2023-07-29T12:44:39.345Z,100478.34
2023-07-29T12:47:07.706Z,100476.91
2023-07-29T12:49:34.700Z,100470.63
2023-07-29T12:52:01.843Z,100466.16
2023-07-29T12:54:28.941Z,100468.38
2023-07-29T12:56:57.273Z,100472.34
2023-07-29T12:59:24.292Z,100457.78
2023-07-29T13:01:51.310Z,100457.97
2023-07-29T13:04:18.294Z,100463.56
2023-07-29T13:06:45.261Z,100462.34
2023-07-29T13:09:12.252Z,100460.59
2023-07-29T13:11:39.334Z,100458.38
2023-07-29T13:14:07.652Z,100459.66
2023-07-29T13:16:34.712Z,100452.66
2023-07-29T13:19:01.668Z,100457.28
2023-07-29T13:21:28.669Z,100460.47
2023-07-29T13:23:55.633Z,100460.97
2023-07-29T13:26:22.602Z,100460.16
2023-07-29T13:28:49.625Z,100457.28
2023-07-29T13:31:18.080Z,100461.38
2023-07-29T13:33:45.091Z,100463.84
2023-07-29T13:36:12.228Z,100456.19
2023-07-29T13:38:39.227Z,100462.63
2023-07-29T13:41:06.703Z,100462.78
2023-07-29T13:43:33.775Z,100446.50
2023-07-29T13:46:00.806Z,100451.19
2023-07-29T13:48:29.230Z,100456.44
2023-07-29T13:50:56.213Z,100450.84
2023-07-29T13:53:23.179Z,100446.81
2023-07-29T13:55:50.207Z,100450.06
2023-07-29T13:58:17.189Z,100441.88
2023-07-29T14:00:44.415Z,100434.66
2023-07-29T14:03:11.436Z,100440.41
2023-07-29T14:05:39.859Z,100439.94
2023-07-29T14:08:07.035Z,100433.97
2023-07-29T14:10:34.179Z,100432.78
2023-07-29T14:13:01.155Z,100440.75
2023-07-29T14:15:29.436Z,100437.25
2023-07-29T14:17:56.438Z,100444.16
2023-07-29T14:20:23.736Z,100450.06
2023-07-29T14:22:52.105Z,100455.63
2023-07-29T14:25:19.568Z,100444.66
2023-07-29T14:27:46.530Z,100443.94
2023-07-29T14:30:13.542Z,100434.50
2023-07-29T14:32:40.740Z,100444.91
2023-07-29T14:35:09.125Z,100441.56
2023-07-29T14:37:36.554Z,100443.84
2023-07-29T14:40:06.883Z,100445.50
2023-07-29T14:42:36.022Z,100440.88
2023-07-29T14:45:03.554Z,100442.50
2023-07-29T14:47:35.635Z,100447.75
2023-07-29T14:50:02.833Z,100456.03
2023-07-29T14:52:29.872Z,100455.69
2023-07-29T14:54:56.837Z,100470.69
2023-07-29T14:57:25.335Z,100470.84
2023-07-29T14:59:52.352Z,100484.53
2023-07-29T15:02:19.409Z,100499.69
2023-07-29T15:04:46.411Z,100502.59
2023-07-29T15:07:13.435Z,100510.31
2023-07-29T15:09:40.403Z,100509.59
2023-07-29T15:12:09.059Z,100509.34
2023-07-29T15:14:37.343Z,100505.13
2023-07-29T15:17:05.371Z,100509.53
2023-07-29T15:19:32.410Z,100504.41
2023-07-29T15:21:59.367Z,100498.75
2023-07-29T15:24:26.303Z,100505.81
2023-07-29T15:26:53.272Z,100516.72
2023-07-29T15:29:20.307Z,100516.41
2023-07-29T15:31:48.823Z,100518.25
2023-07-29T15:34:16.459Z,100516.31
2023-07-29T15:36:43.425Z,100502.41
2023-07-29T15:39:10.391Z,100520.97
2023-07-29T15:41:37.378Z,100518.38
2023-07-29T15:44:04.843Z,100521.31
2023-07-29T15:46:31.892Z,100503.75
2023-07-29T15:49:03.062Z,100502.06
2023-07-29T15:51:30.003Z,100499.69
2023-07-29T15:53:57.063Z,100496.59
2023-07-29T15:56:24.124Z,100506.66
2023-07-29T15:58:51.085Z,100499.41
2023-07-29T16:01:18.070Z,100504.84
2023-07-29T16:03:45.120Z,100504.84
2023-07-29T16:06:13.498Z,100509.44
2023-07-29T16:08:40.518Z,100515.66
2023-07-29T16:11:07.728Z,100546.41
2023-07-29T16:13:34.695Z,100594.38
2023-07-29T16:16:01.732Z,100599.81
2023-07-29T16:18:28.708Z,100582.75
2023-07-29T16:21:02.333Z,100582.53
2023-07-29T16:23:31.587Z,100583.81
2023-07-29T16:25:58.633Z,100592.34
2023-07-29T16:28:25.639Z,100599.22
2023-07-29T16:30:53.161Z,100598.28
2023-07-29T16:33:20.189Z,100592.31
2023-07-29T16:35:47.210Z,100597.88
2023-07-29T16:38:14.251Z,100585.50
2023-07-29T16:40:53.783Z,100577.13
2023-07-29T16:43:29.509Z,100577.38
2023-07-29T16:45:56.570Z,100574.72
2023-07-29T16:48:24.136Z,100571.81
2023-07-29T16:50:51.188Z,100570.25
2023-07-29T16:53:18.220Z,100561.97
2023-07-29T16:55:47.496Z,100570.59
2023-07-29T16:58:14.565Z,100564.72
2023-07-29T17:00:41.615Z,100578.19
2023-07-29T17:03:08.731Z,100568.34
2023-07-29T17:05:35.955Z,100575.63
2023-07-29T17:08:02.974Z,100571.38
2023-07-29T17:10:29.926Z,100572.47
2023-07-29T17:12:58.206Z,100576.50
2023-07-29T17:15:25.282Z,100569.81
2023-07-29T17:17:53.214Z,100575.75
2023-07-29T17:20:20.896Z,100581.66
2023-07-29T17:22:47.879Z,100584.38
2023-07-29T17:25:14.968Z,100579.03
2023-07-29T17:27:41.907Z,100578.50
2023-07-29T17:30:11.700Z,100588.72
2023-07-29T17:32:38.680Z,100591.41
2023-07-29T17:35:06.676Z,100595.72
2023-07-29T17:37:33.619Z,100594.09
2023-07-29T17:40:00.649Z,100594.91
2023-07-29T17:42:27.652Z,100605.41
2023-07-29T17:44:54.791Z,100604.06
2023-07-29T17:47:23.199Z,100609.16
2023-07-29T17:49:50.177Z,100605.94
2023-07-29T17:52:17.106Z,100611.59
2023-07-29T17:54:44.081Z,100618.88
2023-07-29T17:57:11.027Z,100612.94
2023-07-29T17:59:39.066Z,100615.66
2023-07-29T18:02:07.009Z,100613.47
2023-07-29T18:04:35.363Z,100612.66
2023-07-29T18:07:02.472Z,100615.09
2023-07-29T18:09:29.629Z,100611.59
2023-07-29T18:12:00.046Z,100610.25
2023-07-29T18:14:27.063Z,100608.09
2023-07-29T18:16:54.134Z,100606.50
2023-07-29T18:19:25.584Z,100598.94
2023-07-29T18:21:53.864Z,100598.41
2023-07-29T18:24:20.893Z,100609.97
2023-07-29T18:26:47.882Z,100614.81
2023-07-29T18:29:14.864Z,100609.72
2023-07-29T18:31:41.924Z,100611.06
2023-07-29T18:34:08.899Z,100613.47
2023-07-29T18:36:35.941Z,100614.53
2023-07-29T18:39:06.142Z,100607.03
2023-07-29T18:41:33.442Z,100609.44
2023-07-29T18:44:00.407Z,100614.56
2023-07-29T18:46:29.086Z,100615.38
2023-07-29T18:48:56.597Z,100624.00
2023-07-29T18:51:23.743Z,100613.75
2023-07-29T18:53:50.681Z,100618.88
2023-07-29T18:56:19.006Z,100618.88
2023-07-29T18:58:46.010Z,100616.72
2023-07-29T19:01:13.008Z,100611.63
2023-07-29T19:03:42.721Z,100610.78
2023-07-29T19:06:10.034Z,100611.31
2023-07-29T19:08:37.151Z,100619.41
2023-07-29T19:11:04.148Z,100619.41
2023-07-29T19:13:32.499Z,100611.31
2023-07-29T19:15:59.589Z,100609.69
2023-07-29T19:18:26.677Z,100626.66
2023-07-29T19:20:54.796Z,100627.47
2023-07-29T19:23:22.091Z,100625.31
2023-07-29T19:25:51.366Z,100626.41
2023-07-29T19:28:18.933Z,100633.94
2023-07-29T19:30:47.240Z,100640.38
2023-07-29T19:33:14.233Z,100639.28
2023-07-29T19:35:41.248Z,100632.53
2023-07-29T19:38:08.210Z,100631.16
2023-07-29T19:40:35.590Z,100629.25
2023-07-29T19:43:03.253Z,100630.59
2023-07-29T19:45:30.271Z,100631.09
2023-07-29T19:47:58.702Z,100632.19
2023-07-29T19:50:26.359Z,100631.09
2023-07-29T19:52:53.310Z,100628.69
2023-07-29T19:55:20.300Z,100623.06
2023-07-29T19:57:47.245Z,100633.78
2023-07-29T20:00:14.804Z,100638.59
2023-07-29T20:02:41.843Z,100635.88
2023-07-29T20:05:10.546Z,100640.69
2023-07-29T20:07:37.497Z,100636.88
2023-07-29T20:10:06.298Z,100641.69
2023-07-29T20:12:33.418Z,100642.69
2023-07-29T20:15:04.226Z,100636.22
2023-07-29T20:17:32.196Z,100639.69
2023-07-29T20:19:59.271Z,100643.16
2023-07-29T20:22:27.570Z,100639.34
2023-07-29T20:24:54.596Z,100643.59
2023-07-29T20:27:21.544Z,100642.00
2023-07-29T20:29:48.516Z,100636.63
2023-07-29T20:32:15.497Z,100633.38
2023-07-29T20:34:42.462Z,100624.25
2023-07-29T20:37:09.384Z,100623.75
2023-07-29T20:39:37.749Z,100627.78
2023-07-29T20:42:05.532Z,100627.53
2023-07-29T20:44:33.551Z,100627.00
2023-07-29T20:47:02.213Z,100623.50
2023-07-29T20:49:29.296Z,100620.28
2023-07-29T20:51:56.249Z,100617.84
2023-07-29T20:54:23.197Z,100605.50
2023-07-29T20:56:51.488Z,100612.19
2023-07-29T20:59:18.449Z,100608.97
2023-07-29T21:01:45.921Z,100607.31
2023-07-29T21:04:13.075Z,100608.97
2023-07-29T21:06:40.022Z,100607.59
2023-07-29T21:09:06.989Z,100610.78
2023-07-29T21:11:33.987Z,100605.94
2023-07-29T21:14:02.312Z,100603.50
2023-07-29T21:16:29.403Z,100611.84
2023-07-29T21:18:56.533Z,100614.22
2023-07-29T21:21:23.509Z,100609.66
2023-07-29T21:23:50.576Z,100619.09
2023-07-29T21:26:18.821Z,100619.91
2023-07-29T21:28:45.825Z,100622.84
2023-07-29T21:31:16.947Z,100623.16
2023-07-29T21:33:45.105Z,100622.66
2023-07-29T21:36:12.084Z,100615.72
2023-07-29T21:38:39.200Z,100616.50
2023-07-29T21:41:06.198Z,100623.22
2023-07-29T21:43:33.414Z,100627.81
2023-07-29T21:46:00.440Z,100629.97
2023-07-29T21:48:29.103Z,100635.34
2023-07-29T21:50:57.680Z,100628.59
2023-07-29T21:53:25.290Z,100631.84
2023-07-29T21:55:52.765Z,100636.69
2023-07-29T21:58:19.878Z,100633.50
2023-07-29T22:00:52.777Z,100634.56
2023-07-29T22:03:19.805Z,100631.88
2023-07-29T22:05:48.148Z,100623.00
2023-07-29T22:08:17.109Z,100623.50
2023-07-29T22:10:44.203Z,100630.50
2023-07-29T22:13:11.268Z,100621.59
2023-07-29T22:15:39.088Z,100621.03
2023-07-29T22:18:06.152Z,100618.00
2023-07-29T22:20:33.181Z,100609.59
2023-07-29T22:23:01.525Z,100611.97
2023-07-29T22:25:28.518Z,100622.38
2023-07-29T22:27:55.776Z,100617.78
2023-07-29T22:30:24.594Z,100604.63
2023-07-29T22:32:53.594Z,100606.50
2023-07-29T22:35:20.715Z,100610.00
2023-07-29T22:37:47.706Z,100632.28
2023-07-29T22:40:18.091Z,100645.16
2023-07-29T22:42:45.108Z,100650.91
2023-07-29T22:45:12.184Z,100646.63
2023-07-29T22:47:39.262Z,100646.41
2023-07-29T22:50:07.246Z,100645.63
2023-07-29T22:52:34.282Z,100638.69
2023-07-29T22:55:01.288Z,100636.81
2023-07-29T22:57:29.585Z,100633.94
2023-07-29T22:59:56.667Z,100633.41
2023-07-29T23:02:23.812Z,100637.72
2023-07-29T23:04:50.816Z,100631.56
2023-07-29T23:07:17.836Z,100641.53
2023-07-29T23:09:44.979Z,100638.31
2023-07-29T23:12:11.948Z,100640.50
2023-07-29T23:14:42.052Z,100635.69
2023-07-29T23:17:10.206Z,100628.16
2023-07-29T23:19:37.135Z,100632.44
2023-07-29T23:22:04.610Z,100632.44
2023-07-29T23:24:31.623Z,100631.66
2023-07-29T23:26:58.601Z,100631.91
2023-07-29T23:29:25.529Z,100640.50
2023-07-29T23:31:55.724Z,100633.22
2023-07-29T23:34:22.756Z,100627.63
2023-07-29T23:36:49.723Z,100630.31
2023-07-29T23:39:16.723Z,100633.50
2023-07-29T23:41:43.648Z,100643.66
2023-07-29T23:44:10.596Z,100640.91
2023-07-29T23:46:37.555Z,100650.53
2023-07-29T23:49:05.911Z,100645.59
2023-07-29T23:51:32.878Z,100653.59
2023-07-29T23:53:59.858Z,100655.13
2023-07-29T23:56:26.837Z,100654.00
2023-07-29T23:58:53.786Z,100652.88
